Flora, Indiana
Current Conditions -  °F | °C
As of 12:35 AM on Saturday 25 Oct 2014 (Local Time) from KGGP Reporting Station
Scattered Clouds Scattered Clouds  
Wind Chill: 50°   Ceiling: Unl
Heat Index: 50°   Visibility: 7mi
Dew Point: 46°   Wind: 6mph
Humidity: 87%   Direction: 180°S
Pressure: 29.98"   Gusts: NA
Location:  40.55°N, 86.52°W
Report Text: KGGP 250435Z AUTO 18005KT 7SM SCT100 10/08 A2998 RMK AO2
Loading
Personal Weather Stations






























Interactive Weather Map
Tropical Storm Tracking
New forecast layout! Learn more

10-Day Weather Forecast

Advertisements
Track Severe Weather on mobile